Terminal Aerodrome Forecast
Issued by NWS

Home | Current Version | Previous Version | Text Only | Print | Product List | Glossary On
Versions: 1 2 3 4 5 6 7 8 9 10 11 12 13 14 15 16 17 18 19 20 21 22
000
FTUS46 KPDT 251100
TAFBDN
TAF
KBDN 251132Z 2512/2612 30007KT P6SM BKN040
     FM251800 32010KT P6SM FEW040 SCT120
     FM260200 VRB04KT P6SM SCT090
     FM260600 21005KT P6SM SCT012 OVC035=

USA.gov is the U.S. government's official web portal to all federal, state and local government web resources and services.